Latest Coastal Weather Observations for Kiama

IDN60701

Issued at 1:11 pm EST Tuesday 23 May 2017 (issued every 10 minutes, with the page automatically refreshed every 10 minutes)

About coastal observations | Map of coastal stations | Coastal observations for NSW | Marine services | Other Formats
Station Details ID: 068242 Name: KIAMA (BOMBO HEADLAND) Lat: -34.65 Lon: 150.86 Height: 15.5 m
Data from the previous 72 hours. | See also: Recent months at Kiama
Date/Time
EST
Temp
°C
Wind Pressure Rain since
9am
mm
Weather Cloud Vis
km
Sea
Height
m
Swell
Dir  Spd
kts
Gust
kts
hPa Trend Height
m
Period
s
Dir
23/01:00pm 21.2 NE 10 13 - - 0.0 - - - - - - -
23/12:30pm 21.3 NNE 9 13 - - 0.0 - - - - - - -
23/12:00pm 21.4 NE 9 11 - - 0.0 - - - - - - -
23/11:30am 21.1 NE 7 9 - - 0.0 - - - - - - -
23/11:00am 21.2 N 6 9 - - 0.0 - - - - - - -
23/10:30am 20.7 N 7 11 - - 0.0 - - - - - - -
23/10:00am 20.1 NNE 6 9 - - 0.0 - - - - - - -
23/09:30am 18.9 N 3 4 - - 0.0 - - - - - - -
23/09:00am 18.6 N 3 4 - - 0.2 - - - - - - -
23/08:30am 17.5 N 3 3 - - 0.2 - - - - - - -
23/08:00am 16.2 N 4 5 - - 0.2 - - - - - - -
23/07:30am 15.3 NNW 4 5 - - 0.2 - - - - - - -
23/07:00am 15.4 NNW 4 5 - - 0.2 - - - - - - -
23/06:30am 15.8 NW 5 6 - - 0.2 - - - - - - -
23/06:00am 16.0 NW 6 7 - - 0.2 - - - - - - -
23/05:30am 16.0 NW 7 8 - - 0.2 - - - - - - -
23/05:00am 16.0 NW 7 8 - - 0.2 - - - - - - -
23/04:30am 15.5 WNW 7 8 - - 0.2 - - - - - - -
23/04:00am 15.7 WNW 5 7 - - 0.2 - - - - - - -
23/03:30am 15.8 WNW 6 8 - - 0.2 - - - - - - -
23/03:00am 15.2 WNW 6 7 - - 0.2 - - - - - - -
23/02:30am 14.9 NW 3 5 - - 0.2 - - - - - - -
23/02:00am 15.6 WNW 7 9 - - 0.2 - - - - - - -
23/01:30am 15.7 WNW 6 8 - - 0.2 - - - - - - -
23/01:00am 16.1 WNW 7 8 - - 0.2 - - - - - - -
23/12:30am 16.1 WNW 6 8 - - 0.2 - - - - - - -
23/12:00am 16.0 WNW 6 8 - - 0.2 - - - - - - -
 
Date/Time
EST
Temp
°C
Wind Pressure Rain since
9am
mm
Weather Cloud Vis
km
Sea
Height
m
Swell
Dir  Spd
kts
Gust
kts
hPa Trend Height
m
Period
s
Dir
22/11:30pm 16.1 WNW 7 8 - - 0.2 - - - - - - -
22/11:00pm 15.5 WNW 6 8 - - 0.2 - - - - - - -
22/10:30pm 15.9 WNW 6 9 - - 0.2 - - - - - - -
22/10:00pm 16.1 WNW 7 9 - - 0.2 - - - - - - -
22/09:30pm 16.2 WNW 7 8 - - 0.2 - - - - - - -
22/09:00pm 16.0 WNW 5 6 - - 0.2 - - - - - - -
22/08:30pm 16.0 WNW 6 7 - - 0.2 - - - - - - -
22/08:00pm 16.5 WNW 5 7 - - 0.2 - - - - - - -
22/07:30pm 16.7 WNW 3 5 - - 0.2 - - - - - - -
22/07:00pm 17.2 NNW 3 6 - - 0.2 - - - - - - -
22/06:30pm 17.8 N 3 6 - - 0.2 - - - - - - -
22/06:00pm 18.2 NNE 6 8 - - 0.2 - - - - - - -
22/05:30pm 18.0 NNE 5 7 - - 0.2 - - - - - - -
22/05:00pm 18.1 NNE 6 9 - - 0.2 - - - - - - -
22/04:30pm 18.3 NNE 5 9 - - 0.2 - - - - - - -
22/04:00pm 18.3 NE 6 10 - - 0.2 - - - - - - -
22/03:30pm 18.3 NE 7 9 - - 0.2 - - - - - - -
22/03:00pm 18.9 NE 7 10 - - 0.2 - - - - - - -
22/02:30pm 19.5 NE 6 9 - - 0.2 - - - - - - -
22/02:00pm 19.8 NE 5 8 - - 0.2 - - - - - - -
22/01:30pm 20.0 NE 5 7 - - 0.2 - - - - - - -
22/01:00pm 19.8 NE 5 7 - - 0.2 - - - - - - -
22/12:30pm 19.9 ENE 5 7 - - 0.2 - - - - - - -
22/12:00pm 19.9 ENE 4 6 - - 0.2 - - - - - - -
22/11:30am 19.9 NE 4 6 - - 0.2 - - - - - - -
22/11:00am 19.8 NE 4 5 - - 0.2 - - - - - - -
22/10:30am 19.5 NE 3 4 - - 0.0 - - - - - - -
22/10:00am 19.1 NW 2 4 - - 0.0 - - - - - - -
22/09:30am 18.2 WNW 2 3 - - 0.0 - - - - - - -
22/09:00am 17.6 W 1 3 - - 0.0 - - - - - - -
22/08:30am 15.5 CALM 0 3 - - 0.0 - - - - - - -
22/08:00am 15.0 W 3 3 - - 0.0 - - - - - - -
22/07:30am 14.5 SSW 1 2 - - 0.0 - - - - - - -
22/07:00am 14.2 W 4 5 - - 0.0 - - - - - - -
22/06:30am 14.0 W 4 5 - - 0.0 - - - - - - -
22/06:00am 14.0 W 4 5 - - 0.0 - - - - - - -
22/05:30am 14.1 WNW 4 5 - - 0.0 - - - - - - -
22/05:00am 14.2 CALM 0 1 - - 0.0 - - - - - - -
22/04:30am 14.3 W 5 5 - - 0.0 - - - - - - -
22/04:00am 14.3 W 4 5 - - 0.0 - - - - - - -
22/03:30am 14.3 WNW 4 5 - - 0.0 - - - - - - -
22/03:00am 14.2 WSW 3 3 - - 0.0 - - - - - - -
22/02:30am 14.5 SW 2 3 - - 0.0 - - - - - - -
22/02:00am 14.9 W 4 5 - - 0.0 - - - - - - -
22/01:30am 14.4 W 4 5 - - 0.0 - - - - - - -
22/01:00am 14.4 W 6 6 - - 0.0 - - - - - - -
22/12:30am 14.8 W 4 5 - - 0.0 - - - - - - -
22/12:00am 14.8 W 5 6 - - 0.0 - - - - - - -
 
Date/Time
EST
Temp
°C
Wind Pressure Rain since
9am
mm
Weather Cloud Vis
km
Sea
Height
m
Swell
Dir  Spd
kts
Gust
kts
hPa Trend Height
m
Period
s
Dir
21/11:30pm 14.4 W 4 5 - - 0.0 - - - - - - -
21/11:00pm 15.0 W 5 6 - - 0.0 - - - - - - -
21/10:30pm 15.0 WNW 5 6 - - 0.0 - - - - - - -
21/10:00pm 15.4 WNW 5 6 - - 0.0 - - - - - - -
21/09:30pm 15.0 W 5 6 - - 0.0 - - - - - - -
21/09:00pm 14.8 W 6 7 - - 0.0 - - - - - - -
21/08:30pm 15.4 W 4 5 - - 0.0 - - - - - - -
21/08:00pm 15.2 W 4 5 - - 0.0 - - - - - - -
21/07:30pm 15.5 W 4 5 - - 0.0 - - - - - - -
21/07:00pm 15.7 W 5 5 - - 0.0 - - - - - - -
21/06:30pm 15.9 W 4 6 - - 0.0 - - - - - - -
21/06:00pm 16.5 SW 3 5 - - 0.0 - - - - - - -
21/05:30pm 17.8 SSW 6 7 - - 0.0 - - - - - - -
21/05:00pm 18.0 SSW 6 7 - - 0.0 - - - - - - -
21/04:30pm 18.5 S 7 9 - - 0.0 - - - - - - -
21/04:00pm 18.7 S 9 11 - - 0.0 - - - - - - -
21/03:30pm 18.9 S 9 13 - - 0.0 - - - - - - -
21/03:00pm 18.6 S 10 13 - - 0.0 - - - - - - -
21/02:30pm 18.6 SSE 11 14 - - 0.0 - - - - - - -
21/02:00pm 18.9 SSE 13 15 - - 0.0 - - - - - - -
21/01:30pm 19.1 S 12 15 - - 0.0 - - - - - - -
21/01:00pm 19.0 S 14 17 - - 0.0 - - - - - - -
21/12:30pm 19.1 SSE 13 16 - - 0.0 - - - - - - -
21/12:00pm 19.5 S 9 13 - - 0.0 - - - - - - -
21/11:30am 19.4 S 9 13 - - 0.0 - - - - - - -
21/11:00am 19.5 S 7 10 - - 0.0 - - - - - - -
21/10:30am 19.4 SSW 7 9 - - 0.0 - - - - - - -
21/10:00am 19.1 SSW 6 10 - - 0.0 - - - - - - -
21/09:30am 18.7 SSW 7 11 - - 0.0 - - - - - - -
21/09:00am 18.3 SSW 5 7 - - 0.0 - - - - - - -
21/08:30am 17.3 W 2 4 - - 0.0 - - - - - - -
21/08:00am 15.8 W 4 6 - - 0.0 - - - - - - -
21/07:30am 15.3 WNW 3 5 - - 0.0 - - - - - - -
21/07:00am 14.2 W 6 7 - - 0.0 - - - - - - -
21/06:30am 14.5 W 6 8 - - 0.0 - - - - - - -
21/06:00am 13.7 NNW 4 5 - - 0.0 - - - - - - -
21/05:30am 15.2 SW 8 11 - - 0.0 - - - - - - -
21/05:00am 15.3 W 7 10 - - 0.0 - - - - - - -
21/04:30am 14.5 W 4 7 - - 0.0 - - - - - - -
21/04:00am 14.2 W 3 5 - - 0.0 - - - - - - -
21/03:30am 14.9 W 6 12 - - 0.0 - - - - - - -
21/03:00am 15.6 WNW 6 9 - - 0.0 - - - - - - -
21/02:30am 15.2 W 6 8 - - 0.0 - - - - - - -
21/02:00am 14.6 W 5 7 - - 0.0 - - - - - - -
21/01:30am 15.0 W 2 2 - - 0.0 - - - - - - -
21/01:00am 15.4 W 3 5 - - 0.0 - - - - - - -
21/12:30am 15.4 W 2 4 - - 0.0 - - - - - - -
21/12:00am 16.0 WNW 3 4 - - 0.0 - - - - - - -
 
Date/Time
EST
Temp
°C
Wind Pressure Rain since
9am
mm
Weather Cloud Vis
km
Sea
Height
m
Swell
Dir  Spd
kts
Gust
kts
hPa Trend Height
m
Period
s
Dir
20/11:30pm 16.1 W 3 4 - - 0.0 - - - - - - -
20/11:00pm 15.8 W 6 7 - - 0.0 - - - - - - -
20/10:30pm 14.7 CALM 0 2 - - 0.0 - - - - - - -
20/10:00pm 14.7 WNW 4 5 - - 0.0 - - - - - - -
20/09:30pm 15.1 WNW 4 5 - - 0.0 - - - - - - -
20/09:00pm 15.4 S 1 3 - - 0.0 - - - - - - -
20/08:30pm 15.2 WNW 4 6 - - 0.0 - - - - - - -
20/08:00pm 15.9 NW 5 6 - - 0.0 - - - - - - -
20/07:30pm 16.0 WNW 4 5 - - 0.0 - - - - - - -
20/07:00pm 16.1 W 5 7 - - 0.0 - - - - - - -
20/06:30pm 16.4 W 4 5 - - 0.0 - - - - - - -
20/06:00pm 16.9 SW 2 3 - - 0.0 - - - - - - -
20/05:30pm 17.5 CALM 0 0 - - 0.0 - - - - - - -
20/05:00pm 18.0 S 2 3 - - 0.0 - - - - - - -
20/04:30pm 18.6 SSE 4 5 - - 0.0 - - - - - - -
20/04:00pm 18.7 SSE 5 6 - - 0.0 - - - - - - -
20/03:30pm 19.1 S 5 7 - - 0.0 - - - - - - -
20/03:00pm 18.6 SSE 7 9 - - 0.0 - - - - - - -
20/02:30pm 18.7 SE 6 7 - - 0.0 - - - - - - -
20/02:00pm 19.2 SE 5 7 - - 0.0 - - - - - - -
20/01:30pm 19.1 SE 7 9 - - 0.0 - - - - - - -

Other Formats:

Comma delimited format used in spreadsheet applications
http://www.bom.gov.au/fwo/IDN60701/IDN60701.95749.axf

JavaScript Object Notation format (JSON) in row-major order
http://www.bom.gov.au/fwo/IDN60701/IDN60701.95749.json